createdAt,value
2019-05-14T00:00:03.427Z,2
2019-05-14T00:01:03.786Z,2.03
2019-05-14T00:02:03.490Z,2.31
2019-05-14T00:03:03.233Z,2.24
2019-05-14T00:04:03.481Z,2.37
2019-05-14T00:05:03.490Z,2.59
2019-05-14T00:06:03.145Z,2.01
2019-05-14T00:07:03.149Z,2.13
2019-05-14T00:08:03.027Z,1.89
2019-05-14T00:09:03.465Z,2.46
2019-05-14T00:10:03.085Z,2.12
2019-05-14T00:11:03.627Z,2.7
2019-05-14T00:12:03.078Z,2.42
2019-05-14T00:13:03.266Z,2.41
2019-05-14T00:14:03.049Z,1.87
2019-05-14T00:15:02.817Z,2.51
2019-05-14T00:16:02.969Z,2.11
2019-05-14T00:17:02.984Z,2.09
2019-05-14T00:18:03.046Z,2.67
2019-05-14T00:19:02.839Z,1.76
2019-05-14T00:20:10.653Z,2.03
2019-05-14T00:21:02.685Z,2.01
2019-05-14T00:22:02.773Z,2.18
2019-05-14T00:23:02.667Z,2.09
2019-05-14T00:24:03.613Z,2.19
2019-05-14T00:25:02.740Z,2.2
2019-05-14T00:26:03.255Z,2.12
2019-05-14T00:27:03.567Z,2.35
2019-05-14T00:28:03.355Z,2.34
2019-05-14T00:29:03.414Z,2.84
2019-05-14T00:30:03.416Z,2.19
2019-05-14T00:31:03.334Z,2.93
2019-05-14T00:32:03.500Z,2.51
2019-05-14T00:33:03.459Z,2.26
2019-05-14T00:34:03.084Z,2.64
2019-05-14T00:35:03.283Z,2.63
2019-05-14T00:36:03.386Z,2.45
2019-05-14T00:37:03.265Z,3.15
2019-05-14T00:38:03.250Z,2.11
2019-05-14T00:39:02.955Z,2.45
2019-05-14T00:40:03.252Z,2.12
2019-05-14T00:41:03.033Z,2.35
2019-05-14T00:42:03.302Z,2.35
2019-05-14T00:43:03.072Z,2.25
2019-05-14T00:44:03.563Z,2.25
2019-05-14T00:45:03.442Z,2.61
2019-05-14T00:46:03.369Z,2.38
2019-05-14T00:47:03.660Z,2.61
2019-05-14T00:48:02.977Z,2.2
2019-05-14T00:49:03.069Z,2.2
2019-05-14T00:50:03.156Z,2.19
2019-05-14T00:51:02.940Z,2.58
2019-05-14T00:52:02.958Z,2.58
2019-05-14T00:53:03.239Z,2.59
2019-05-14T00:54:02.913Z,2.24
2019-05-14T00:55:02.937Z,2.17
2019-05-14T00:56:02.971Z,2.42
2019-05-14T00:57:02.821Z,2.11
2019-05-14T00:58:02.830Z,2.14
2019-05-14T00:59:03.657Z,2.19
2019-05-14T01:00:03.554Z,2.16
2019-05-14T01:01:03.052Z,2.22
2019-05-14T01:02:03.371Z,2.32
2019-05-14T01:03:03.466Z,2.4
2019-05-14T01:04:03.306Z,2.01
2019-05-14T01:05:03.156Z,2.22
2019-05-14T01:06:03.652Z,1.95
2019-05-14T01:07:04.626Z,2.21
2019-05-14T01:08:03.382Z,2.32
2019-05-14T01:09:03.395Z,2.36
2019-05-14T01:10:03.341Z,2.32
2019-05-14T01:11:03.425Z,1.96
2019-05-14T01:12:03.075Z,2.56
2019-05-14T01:13:03.171Z,2.16
2019-05-14T01:14:03.072Z,2.18
2019-05-14T01:15:13.364Z,2.45
2019-05-14T01:16:02.975Z,2.05
2019-05-14T01:17:03.323Z,2.2
2019-05-14T01:18:03.072Z,2.65
2019-05-14T01:19:03.009Z,2.41
2019-05-14T01:20:03.378Z,2.18
2019-05-14T01:21:02.888Z,2.11
2019-05-14T01:22:02.910Z,2.17
2019-05-14T01:23:02.565Z,2.46
2019-05-14T01:24:02.975Z,2.44
2019-05-14T01:25:03.005Z,2.79
2019-05-14T01:26:02.872Z,3
2019-05-14T01:27:03.512Z,2.42
2019-05-14T01:28:02.948Z,2.47
2019-05-14T01:29:03.600Z,2.47
2019-05-14T01:30:03.673Z,2.36
2019-05-14T01:31:03.460Z,2.31
2019-05-14T01:32:02.964Z,2.31
2019-05-14T01:33:03.612Z,2.48
2019-05-14T01:34:03.499Z,2.48
2019-05-14T01:35:03.517Z,1.76
2019-05-14T01:36:03.298Z,2.07
2019-05-14T01:37:03.510Z,2.07
2019-05-14T01:38:03.377Z,1.72
2019-05-14T01:39:03.513Z,1.92
2019-05-14T01:40:03.521Z,1.82
2019-05-14T01:41:03.243Z,2.05
2019-05-14T01:42:03.305Z,2.05
2019-05-14T01:43:02.871Z,2.07
2019-05-14T01:44:03.227Z,2.1
2019-05-14T01:45:03.367Z,2.45
2019-05-14T01:46:03.185Z,2.54
2019-05-14T01:47:03.069Z,2.09
2019-05-14T01:48:03.213Z,2.32
2019-05-14T01:49:03.136Z,2.49
2019-05-14T01:50:03.293Z,2.68
2019-05-14T01:51:03.024Z,2.16
2019-05-14T01:52:02.698Z,2.94
2019-05-14T01:53:02.858Z,2.39
2019-05-14T01:54:02.990Z,2.55
2019-05-14T01:55:02.841Z,2.08
2019-05-14T01:56:02.713Z,2.64
2019-05-14T01:57:02.766Z,2.55
2019-05-14T01:58:02.752Z,2.74
2019-05-14T01:59:02.673Z,2.33
2019-05-14T02:00:02.774Z,2.32
2019-05-14T02:01:02.811Z,2.43
2019-05-14T02:02:03.858Z,2.65
2019-05-14T02:03:03.554Z,2.26
2019-05-14T02:04:04.122Z,2.79
2019-05-14T02:05:03.396Z,2.59
2019-05-14T02:06:03.391Z,2.55
2019-05-14T02:07:03.194Z,2.37
2019-05-14T02:08:03.276Z,2.55
2019-05-14T02:09:03.353Z,2.26
2019-05-14T02:10:03.327Z,2.31
2019-05-14T02:11:03.086Z,2.54
2019-05-14T02:12:03.322Z,2.37
2019-05-14T02:13:03.478Z,2.36
2019-05-14T02:14:03.125Z,2.54
2019-05-14T02:15:03.258Z,2.55
2019-05-14T02:16:03.182Z,2.5
2019-05-14T02:17:02.909Z,2.2
2019-05-14T02:18:03.136Z,2.21
2019-05-14T02:19:02.826Z,2.45
2019-05-14T02:20:02.921Z,2.28
2019-05-14T02:21:02.903Z,2.36
2019-05-14T02:22:02.905Z,2.36
2019-05-14T02:23:02.982Z,2.46
2019-05-14T02:24:02.713Z,2.56
2019-05-14T02:25:02.780Z,2.56
2019-05-14T02:26:02.895Z,2.69
2019-05-14T02:27:02.575Z,2.29
2019-05-14T02:28:03.367Z,2.55
2019-05-14T02:29:03.532Z,2.55
2019-05-14T02:30:02.718Z,2.93
2019-05-14T02:31:04.274Z,2.93
2019-05-14T02:32:03.595Z,2.93
2019-05-14T02:33:03.291Z,2.85
2019-05-14T02:34:03.181Z,2.66
2019-05-14T02:35:03.438Z,2.18
2019-05-14T02:36:03.253Z,2.62
2019-05-14T02:37:03.379Z,2.61
2019-05-14T02:38:03.063Z,2.58
2019-05-14T02:39:03.254Z,2.4
2019-05-14T02:40:03.154Z,2.42
2019-05-14T02:41:03.103Z,2.25
2019-05-14T02:42:03.093Z,2.64
2019-05-14T02:43:03.170Z,1.96
2019-05-14T02:44:03.338Z,2.91
2019-05-14T02:45:03.136Z,2.92
2019-05-14T02:46:17.103Z,2.52
2019-05-14T02:47:02.853Z,2.78
2019-05-14T02:48:03.074Z,2.56
2019-05-14T02:49:02.571Z,2.54
2019-05-14T02:50:02.945Z,1.98
2019-05-14T02:51:02.680Z,2.42
2019-05-14T02:52:03.365Z,2.58
2019-05-14T02:53:03.656Z,2.41
2019-05-14T02:54:02.837Z,2.38
2019-05-14T02:55:02.729Z,2.72
2019-05-14T02:56:03.367Z,2.48
2019-05-14T02:57:02.637Z,1.98
2019-05-14T02:58:03.384Z,2.39
2019-05-14T02:59:08.826Z,2.32
2019-05-14T03:00:03.614Z,2.94
2019-05-14T03:01:03.505Z,2.56
2019-05-14T03:02:03.332Z,2.34
2019-05-14T03:03:02.724Z,2.01
2019-05-14T03:04:03.306Z,2.55
2019-05-14T03:05:02.785Z,2.02
2019-05-14T03:06:03.397Z,2.54
2019-05-14T03:07:03.200Z,2.02
2019-05-14T03:08:03.251Z,2.18
2019-05-14T03:09:03.146Z,2.43
2019-05-14T03:10:03.312Z,2.22
2019-05-14T03:11:03.104Z,2.33
2019-05-14T03:12:03.333Z,2.33
2019-05-14T03:13:02.967Z,1.97
2019-05-14T03:14:03.286Z,1.97
2019-05-14T03:15:03.198Z,2.45
2019-05-14T03:16:30.281Z,2.56
2019-05-14T03:17:03.166Z,2.56
2019-05-14T03:18:02.958Z,2.36
2019-05-14T03:19:02.896Z,2.13
2019-05-14T03:20:02.910Z,2.13
2019-05-14T03:21:02.959Z,2.44
2019-05-14T03:22:02.738Z,2.46
2019-05-14T03:23:14.150Z,2.55
2019-05-14T03:24:02.934Z,2.25
2019-05-14T03:25:03.113Z,2.94
2019-05-14T03:26:02.673Z,2.14
2019-05-14T03:27:02.716Z,2.45
2019-05-14T03:28:02.840Z,2.12
2019-05-14T03:29:02.560Z,2.15
2019-05-14T03:30:02.906Z,2.14
2019-05-14T03:31:04.425Z,2.44
2019-05-14T03:32:04.074Z,2.15
2019-05-14T03:33:03.788Z,2.61
2019-05-14T03:34:04.073Z,2.57
2019-05-14T03:35:04.787Z,2.19
2019-05-14T03:36:17.106Z,2.18
2019-05-14T03:37:04.477Z,2.35
2019-05-14T03:38:03.404Z,2.31
2019-05-14T03:39:03.247Z,2.43
2019-05-14T03:40:03.212Z,2.1
2019-05-14T03:41:03.321Z,3.04
2019-05-14T03:42:03.273Z,2.47
2019-05-14T03:43:03.249Z,3.11
2019-05-14T03:44:03.249Z,2.41
2019-05-14T03:45:03.334Z,2.36
2019-05-14T03:46:02.973Z,2.61
2019-05-14T03:47:06.549Z,2.49
2019-05-14T03:48:03.070Z,2.46
2019-05-14T03:49:02.810Z,2.46
2019-05-14T03:50:02.727Z,2.08
2019-05-14T03:51:02.745Z,2.34
2019-05-14T03:52:02.977Z,2.34
2019-05-14T03:53:02.943Z,2.21
2019-05-14T03:54:12.077Z,2.13
2019-05-14T03:55:05.073Z,2.48
2019-05-14T03:56:02.603Z,2.59
2019-05-14T03:57:02.641Z,2.12
2019-05-14T03:58:02.416Z,2.19
2019-05-14T03:59:03.622Z,2.4
2019-05-14T04:00:03.552Z,2.39
2019-05-14T04:01:03.522Z,2.1
2019-05-14T04:02:03.533Z,2.29
2019-05-14T04:03:03.292Z,2.38
2019-05-14T04:04:03.187Z,2.72
2019-05-14T04:05:03.476Z,2.23
2019-05-14T04:06:03.338Z,2.39
2019-05-14T04:07:03.575Z,2.88
2019-05-14T04:08:03.181Z,2.29
2019-05-14T04:09:03.479Z,1.79
2019-05-14T04:10:03.229Z,2.56
2019-05-14T04:11:03.020Z,2.32
2019-05-14T04:12:03.158Z,2.31
2019-05-14T04:13:03.072Z,2.56
2019-05-14T04:14:02.995Z,2.55
2019-05-14T04:15:02.983Z,2.22
2019-05-14T04:16:03.567Z,2.45
2019-05-14T04:17:14.981Z,2.31
2019-05-14T04:18:03.469Z,2.12
2019-05-14T04:19:03.391Z,2.36
2019-05-14T04:20:03.216Z,2.4
2019-05-14T04:21:02.927Z,2.08
2019-05-14T04:22:02.954Z,2.56
2019-05-14T04:23:02.876Z,2.48
2019-05-14T04:24:02.876Z,2.64
2019-05-14T04:25:02.946Z,2.81
2019-05-14T04:26:02.657Z,3.09
2019-05-14T04:27:12.689Z,2.27
2019-05-14T04:28:03.544Z,2.33
2019-05-14T04:29:02.555Z,2.26
2019-05-14T04:30:02.784Z,2.86
2019-05-14T04:31:02.645Z,2.59
2019-05-14T04:32:03.722Z,2.78
2019-05-14T04:33:03.445Z,2.96
2019-05-14T04:34:03.373Z,3.16
2019-05-14T04:35:02.227Z,2.89
2019-05-14T04:36:03.469Z,2.64
2019-05-14T04:37:03.397Z,4.01
2019-05-14T04:38:03.433Z,3.27
2019-05-14T04:39:03.247Z,3.67
2019-05-14T04:40:03.477Z,4.83
2019-05-14T04:41:03.378Z,4.83
2019-05-14T04:42:03.258Z,3.75
2019-05-14T04:43:03.465Z,4.95
2019-05-14T04:44:03.017Z,4.89
2019-05-14T04:45:06.112Z,4.35
2019-05-14T04:46:02.868Z,5.44
2019-05-14T04:47:30.376Z,4.82
2019-05-14T04:48:31.617Z,5.82
2019-05-14T04:49:02.908Z,4.68
2019-05-14T04:50:02.934Z,5.74
2019-05-14T04:51:02.979Z,4.82
2019-05-14T04:52:02.692Z,4.99
2019-05-14T04:53:02.614Z,4.83
2019-05-14T04:54:02.903Z,4.68
2019-05-14T04:55:03.003Z,4.92
2019-05-14T04:56:03.576Z,4.27
2019-05-14T04:57:03.598Z,4.54
2019-05-14T04:58:02.567Z,4.72
2019-05-14T04:59:03.574Z,4.79
2019-05-14T05:00:03.524Z,5.3
2019-05-14T05:01:03.443Z,4.53
2019-05-14T05:02:03.466Z,4.84
2019-05-14T05:03:03.388Z,4.62
2019-05-14T05:04:03.203Z,4.19
2019-05-14T05:05:03.429Z,3.46
2019-05-14T05:06:03.085Z,4.12
2019-05-14T05:07:03.205Z,3.81
2019-05-14T05:08:03.348Z,3.95
2019-05-14T05:09:03.079Z,3.45
2019-05-14T05:10:03.241Z,3.48
2019-05-14T05:11:03.136Z,3.22
2019-05-14T05:12:03.041Z,3.38
2019-05-14T05:13:02.881Z,3.08
2019-05-14T05:14:02.815Z,2.68
2019-05-14T05:15:02.819Z,3.18
2019-05-14T05:16:02.867Z,3.19
2019-05-14T05:17:02.936Z,3.22
2019-05-14T05:18:02.937Z,3.08
2019-05-14T05:19:03.689Z,3.81
2019-05-14T05:20:03.659Z,3.28
2019-05-14T05:21:03.516Z,2.75
2019-05-14T05:22:02.779Z,2.98
2019-05-14T05:23:03.473Z,2.89
2019-05-14T05:24:03.647Z,3.18
2019-05-14T05:25:03.703Z,2.88
2019-05-14T05:26:03.391Z,2.58
2019-05-14T05:27:03.269Z,2.76
2019-05-14T05:28:03.191Z,2.84
2019-05-14T05:29:10.323Z,2.84
2019-05-14T05:30:03.445Z,2.68
2019-05-14T05:31:03.437Z,2.68
2019-05-14T05:32:03.454Z,3.18
2019-05-14T05:33:03.230Z,2.76
2019-05-14T05:34:03.225Z,2.54
2019-05-14T05:35:03.239Z,2.73
2019-05-14T05:36:03.091Z,2.82
2019-05-14T05:37:03.117Z,2.97
2019-05-14T05:38:03.348Z,3.26
2019-05-14T05:39:02.968Z,3.28
2019-05-14T05:40:03.214Z,2.65
2019-05-14T05:41:02.833Z,2.45
2019-05-14T05:42:03.130Z,2.74
2019-05-14T05:43:03.431Z,2.65
2019-05-14T05:44:02.853Z,3.41
2019-05-14T05:45:03.096Z,3.01
2019-05-14T05:46:03.299Z,2.68
2019-05-14T05:47:03.334Z,2.75
2019-05-14T05:48:03.070Z,2.56
2019-05-14T05:49:03.051Z,2.55
2019-05-14T05:50:03.238Z,3.11
2019-05-14T05:51:02.858Z,2.61
2019-05-14T05:52:03.004Z,2.66
2019-05-14T05:53:02.924Z,2.91
2019-05-14T05:54:03.044Z,3.24
2019-05-14T05:55:02.776Z,3.08
2019-05-14T05:56:02.695Z,3.01
2019-05-14T05:57:02.704Z,2.8
2019-05-14T05:58:02.718Z,2.72
2019-05-14T05:59:02.602Z,2.81
2019-05-14T06:00:02.618Z,2.94
2019-05-14T06:01:03.428Z,2.92
2019-05-14T06:02:02.649Z,2.52
2019-05-14T06:03:03.361Z,2.92
2019-05-14T06:04:02.930Z,2.1
2019-05-14T06:05:03.251Z,2.94
2019-05-14T06:06:03.624Z,2.56
2019-05-14T06:07:03.308Z,2.36
2019-05-14T06:08:03.141Z,2.44
2019-05-14T06:09:03.332Z,3.27
2019-05-14T06:10:03.463Z,2.79
2019-05-14T06:11:03.400Z,3.06
2019-05-14T06:12:02.927Z,2.51
2019-05-14T06:13:03.269Z,2.62
2019-05-14T06:14:03.265Z,2.8
2019-05-14T06:15:02.851Z,2.44
2019-05-14T06:16:02.994Z,2.78
2019-05-14T06:17:03.292Z,2.69
2019-05-14T06:18:18.254Z,2.69
2019-05-14T06:19:02.906Z,2.99
2019-05-14T06:20:02.837Z,3.69
2019-05-14T06:21:03.064Z,3.69
2019-05-14T06:22:04.427Z,3.07
2019-05-14T06:23:02.796Z,2.44
2019-05-14T06:24:03.182Z,2.58
2019-05-14T06:25:02.750Z,3.04
2019-05-14T06:26:02.732Z,3.12
2019-05-14T06:27:03.623Z,3.18
2019-05-14T06:28:02.828Z,2.92
2019-05-14T06:29:02.487Z,3.38
2019-05-14T06:30:02.876Z,7.1
2019-05-14T06:31:03.526Z,3.53
2019-05-14T06:32:03.617Z,9.15
2019-05-14T06:33:03.384Z,3.89
2019-05-14T06:34:03.636Z,3.23
2019-05-14T06:35:03.640Z,2.5
2019-05-14T06:36:03.147Z,2.99
2019-05-14T06:37:03.501Z,2.79
2019-05-14T06:38:03.282Z,2.48
2019-05-14T06:39:03.124Z,2.25
2019-05-14T06:40:03.246Z,2.5
2019-05-14T06:41:03.452Z,2.59
2019-05-14T06:42:03.124Z,2.47
2019-05-14T06:43:03.127Z,2.53
2019-05-14T06:44:03.297Z,2.85
2019-05-14T06:45:03.391Z,2.31
2019-05-14T06:46:02.977Z,2.32
2019-05-14T06:47:02.938Z,3.18
2019-05-14T06:48:02.999Z,2.58
2019-05-14T06:49:02.615Z,2.72
2019-05-14T06:50:03.015Z,2.86
2019-05-14T06:51:02.950Z,3.09
2019-05-14T06:52:03.182Z,2.4
2019-05-14T06:53:02.753Z,2.72
2019-05-14T06:54:03.054Z,2.73
2019-05-14T06:55:03.591Z,2.55
2019-05-14T06:56:02.745Z,2.71
2019-05-14T06:57:02.585Z,2.31
2019-05-14T06:58:02.923Z,2.48
2019-05-14T06:59:02.798Z,2.7
2019-05-14T07:00:03.310Z,2.88
2019-05-14T07:01:02.733Z,3.06
2019-05-14T07:02:03.622Z,2.65
2019-05-14T07:03:03.577Z,2.77
2019-05-14T07:04:03.681Z,2.93
2019-05-14T07:05:02.644Z,2.93
2019-05-14T07:06:03.392Z,3.09
2019-05-14T07:07:03.478Z,3.09
2019-05-14T07:08:03.545Z,3.09
2019-05-14T07:09:03.521Z,2.55
2019-05-14T07:10:03.194Z,5.76
2019-05-14T07:11:03.240Z,5.76
2019-05-14T07:12:03.293Z,7.07
2019-05-14T07:13:03.343Z,3.16
2019-05-14T07:14:03.192Z,2.64
2019-05-14T07:15:03.224Z,2.89
2019-05-14T07:16:03.273Z,3.98
2019-05-14T07:17:03.101Z,2.66
2019-05-14T07:18:03.348Z,3.46
2019-05-14T07:19:03.310Z,2.91
2019-05-14T07:20:03.361Z,2.61
2019-05-14T07:21:02.950Z,3.33
2019-05-14T07:22:03.020Z,2.62
2019-05-14T07:23:03.062Z,3.01
2019-05-14T07:24:03.016Z,2.37
2019-05-14T07:25:03.034Z,2.32
2019-05-14T07:26:02.816Z,2.5
2019-05-14T07:27:02.911Z,2.16
2019-05-14T07:28:02.928Z,2.02
2019-05-14T07:29:02.917Z,2.44
2019-05-14T07:30:02.862Z,2.98
2019-05-14T07:31:02.505Z,2.84
2019-05-14T07:32:03.437Z,2.96
2019-05-14T07:33:02.527Z,2.56
2019-05-14T07:34:03.474Z,2.32
2019-05-14T07:35:03.679Z,2.74
2019-05-14T07:36:02.591Z,1.91
2019-05-14T07:37:03.413Z,2.75
2019-05-14T07:38:03.498Z,2.39
2019-05-14T07:39:03.243Z,2.62
2019-05-14T07:40:03.727Z,2.46
2019-05-14T07:41:02.955Z,2.72
2019-05-14T07:42:03.075Z,2.61
2019-05-14T07:43:03.126Z,2.28
2019-05-14T07:44:03.152Z,2.48
2019-05-14T07:45:03.043Z,2.45
2019-05-14T07:46:02.861Z,2.64
2019-05-14T07:47:02.961Z,2.33
2019-05-14T07:48:03.075Z,2.21
2019-05-14T07:49:09.095Z,2.59
2019-05-14T07:50:03.007Z,1.98
2019-05-14T07:51:02.711Z,2.52
2019-05-14T07:52:02.790Z,1.81
2019-05-14T07:53:03.383Z,2.29
2019-05-14T07:54:02.476Z,2.19
2019-05-14T07:55:03.645Z,2.18
2019-05-14T07:56:03.028Z,2.18
2019-05-14T07:57:02.579Z,2.39
2019-05-14T07:58:03.448Z,1.81
2019-05-14T07:59:03.469Z,1.81
2019-05-14T08:00:03.446Z,2.26
2019-05-14T08:01:03.419Z,2.21
2019-05-14T08:02:03.325Z,2.7
2019-05-14T08:03:03.482Z,2.47
2019-05-14T08:04:03.622Z,2.35
2019-05-14T08:05:03.514Z,2.69
2019-05-14T08:06:03.486Z,2.11
2019-05-14T08:07:03.244Z,2.37
2019-05-14T08:08:03.359Z,2.06
2019-05-14T08:09:03.691Z,2.57
2019-05-14T08:10:03.394Z,2
2019-05-14T08:11:03.322Z,2.25
2019-05-14T08:12:03.063Z,2.3
2019-05-14T08:13:02.833Z,2.31
2019-05-14T08:14:03.329Z,2.14
2019-05-14T08:15:18.782Z,2.2
2019-05-14T08:16:02.901Z,2.06
2019-05-14T08:17:02.853Z,2.31
2019-05-14T08:18:02.901Z,2.23
2019-05-14T08:19:19.701Z,2.24
2019-05-14T08:20:02.976Z,2.66
2019-05-14T08:21:02.901Z,2.19
2019-05-14T08:22:02.945Z,2.51
2019-05-14T08:23:03.586Z,2.23
2019-05-14T08:24:03.516Z,2.26
2019-05-14T08:25:02.645Z,2.07
2019-05-14T08:26:04.879Z,1.83
2019-05-14T08:27:03.549Z,2.03
2019-05-14T08:28:03.472Z,1.87
2019-05-14T08:29:02.648Z,1.91
2019-05-14T08:30:02.779Z,2.64
2019-05-14T08:31:02.634Z,2.12
2019-05-14T08:32:02.616Z,2.5
2019-05-14T08:33:03.356Z,1.93
2019-05-14T08:34:05.909Z,2.38
2019-05-14T08:35:02.554Z,3.03
2019-05-14T08:36:03.461Z,2.45
2019-05-14T08:37:05.437Z,2.21
2019-05-14T08:38:11.405Z,2.29
2019-05-14T08:39:03.440Z,2.48
2019-05-14T08:40:03.465Z,1.99
2019-05-14T08:41:03.269Z,1.95
2019-05-14T08:42:04.513Z,2.14
2019-05-14T08:43:03.223Z,2.24
2019-05-14T08:44:03.188Z,2.24
2019-05-14T08:45:09.257Z,2.3
2019-05-14T08:46:03.104Z,2.3
2019-05-14T08:47:03.396Z,2.3
2019-05-14T08:48:02.855Z,2.12
2019-05-14T08:49:03.074Z,2.12
2019-05-14T08:50:02.962Z,1.99
2019-05-14T08:51:03.247Z,2.41
2019-05-14T08:52:02.870Z,2.14
2019-05-14T08:53:02.611Z,1.81
2019-05-14T08:54:02.922Z,2.56
2019-05-14T08:55:14.154Z,2.06
2019-05-14T08:56:02.653Z,2.05
2019-05-14T08:57:03.637Z,2.19
2019-05-14T08:58:02.870Z,2.75
2019-05-14T08:59:03.489Z,2.95
2019-05-14T09:00:03.778Z,2.76
2019-05-14T09:01:03.495Z,4.26
2019-05-14T09:02:10.205Z,2.62
2019-05-14T09:03:03.603Z,2.98
2019-05-14T09:04:03.338Z,3.38
2019-05-14T09:05:05.279Z,2.28
2019-05-14T09:06:03.123Z,2.94
2019-05-14T09:07:03.328Z,9.32
2019-05-14T09:08:03.144Z,6.14
2019-05-14T09:09:03.406Z,6.55
2019-05-14T09:10:03.337Z,3.3
2019-05-14T09:11:03.105Z,2.63
2019-05-14T09:12:03.035Z,2.84
2019-05-14T09:13:03.215Z,2.36
2019-05-14T09:14:02.977Z,2.92
2019-05-14T09:15:03.216Z,2.46
2019-05-14T09:16:02.893Z,2.74
2019-05-14T09:17:03.265Z,2.5
2019-05-14T09:18:04.008Z,2
2019-05-14T09:19:02.593Z,1.93
2019-05-14T09:20:08.455Z,2.18
2019-05-14T09:21:03.601Z,2.1
2019-05-14T09:22:02.696Z,2.29
2019-05-14T09:23:03.621Z,2.35
2019-05-14T09:24:03.492Z,2.52
2019-05-14T09:25:03.446Z,2.58
2019-05-14T09:26:03.571Z,2.36
2019-05-14T09:27:05.695Z,2.27
2019-05-14T09:28:03.491Z,2.32
2019-05-14T09:29:25.443Z,2.28
2019-05-14T09:30:03.357Z,2.3
2019-05-14T09:31:03.194Z,2.09
2019-05-14T09:32:02.957Z,2.24
2019-05-14T09:33:03.269Z,2.01
2019-05-14T09:34:03.332Z,2.11
2019-05-14T09:35:03.059Z,2.11
2019-05-14T09:36:20.324Z,1.76
2019-05-14T09:37:03.022Z,1.76
2019-05-14T09:38:02.829Z,1.96
2019-05-14T09:39:02.869Z,1.89
2019-05-14T09:40:02.862Z,1.89
2019-05-14T09:41:15.163Z,2.26
2019-05-14T09:42:02.768Z,2.25
2019-05-14T09:43:02.978Z,2.25
2019-05-14T09:44:03.120Z,2.34
2019-05-14T09:45:02.718Z,2.44
2019-05-14T09:46:02.760Z,2.15
2019-05-14T09:47:02.582Z,2.32
2019-05-14T09:48:03.557Z,2.58
2019-05-14T09:49:03.565Z,2.49
2019-05-14T09:50:20.059Z,1.92
2019-05-14T09:51:03.441Z,2.06
2019-05-14T09:52:02.733Z,2.09
2019-05-14T09:53:02.720Z,2.24
2019-05-14T09:54:03.643Z,2.61
2019-05-14T09:55:03.455Z,2.46
2019-05-14T09:56:02.633Z,2.39
2019-05-14T09:57:02.670Z,2.62
2019-05-14T09:58:03.440Z,6.78
2019-05-14T09:59:03.571Z,12.91
2019-05-14T10:00:03.389Z,12.88
2019-05-14T10:01:03.284Z,12.26
2019-05-14T10:02:03.166Z,9.36
2019-05-14T10:03:03.213Z,4.69
2019-05-14T10:04:03.456Z,4.64
2019-05-14T10:05:03.469Z,3.26
2019-05-14T10:06:02.848Z,2.81
2019-05-14T10:07:03.112Z,3.48
2019-05-14T10:08:03.198Z,3.21
2019-05-14T10:09:02.970Z,3.38
2019-05-14T10:10:03.159Z,2.83
2019-05-14T10:11:03.040Z,3.14
2019-05-14T10:12:02.899Z,2.95
2019-05-14T10:13:02.715Z,3.49
2019-05-14T10:14:02.803Z,3.92
2019-05-14T10:15:02.960Z,2.85
2019-05-14T10:16:02.941Z,2.95
2019-05-14T10:17:02.783Z,3.18
2019-05-14T10:18:02.835Z,2.86
2019-05-14T10:19:02.919Z,2.56
2019-05-14T10:20:02.936Z,3.03
2019-05-14T10:21:02.968Z,3.04
2019-05-14T10:22:03.258Z,2.87
2019-05-14T10:23:03.617Z,3.14
2019-05-14T10:24:03.627Z,3.26
2019-05-14T10:25:03.731Z,2.78
2019-05-14T10:26:03.378Z,2.41
2019-05-14T10:27:02.706Z,2.27
2019-05-14T10:28:03.695Z,2.27
2019-05-14T10:29:02.775Z,2.99
2019-05-14T10:30:03.357Z,2.56
2019-05-14T10:31:03.938Z,2.56
2019-05-14T10:32:02.663Z,2.79
2019-05-14T10:33:14.684Z,2.82
2019-05-14T10:34:03.157Z,2.38
2019-05-14T10:35:03.429Z,2.41
2019-05-14T10:36:03.242Z,2.96
2019-05-14T10:37:03.147Z,2.75
2019-05-14T10:38:03.105Z,2.22
2019-05-14T10:39:03.319Z,2.6
2019-05-14T10:40:03.228Z,1.71
2019-05-14T10:41:03.231Z,1.89
2019-05-14T10:42:03.266Z,2.11
2019-05-14T10:43:03.134Z,2.44
2019-05-14T10:44:02.986Z,1.91
2019-05-14T10:45:03.067Z,2.69
2019-05-14T10:46:02.704Z,2.32
2019-05-14T10:47:03.536Z,2.47
2019-05-14T10:48:03.050Z,2.08
2019-05-14T10:49:23.371Z,1.86
2019-05-14T10:50:03.069Z,2.28
2019-05-14T10:51:03.905Z,1.75
2019-05-14T10:52:03.064Z,1.88
2019-05-14T10:53:02.828Z,1.87
2019-05-14T10:54:25.127Z,1.65
2019-05-14T10:55:02.821Z,1.92
2019-05-14T10:56:03.018Z,2.12
2019-05-14T10:57:02.743Z,1.88
2019-05-14T10:58:02.682Z,1.54
2019-05-14T11:00:02.575Z,1.48
2019-05-14T11:01:03.680Z,1.5
2019-05-14T11:02:02.812Z,1.62
2019-05-14T11:03:03.625Z,1.88
2019-05-14T11:04:03.314Z,2.11
2019-05-14T11:05:03.529Z,1.81
2019-05-14T11:07:02.430Z,1.99
2019-05-14T11:08:01.907Z,1.64
2019-05-14T11:09:02.261Z,1.95
2019-05-14T11:10:02.595Z,1.84
2019-05-14T11:11:04.490Z,2.13
2019-05-14T11:12:02.274Z,2.14
2019-05-14T11:13:02.422Z,1.93
2019-05-14T11:14:02.338Z,1.35
2019-05-14T11:15:02.323Z,1.7
2019-05-14T11:16:02.386Z,2.06
2019-05-14T11:17:01.928Z,2.06
2019-05-14T11:18:01.994Z,1.62
2019-05-14T11:19:01.901Z,1.93
2019-05-14T11:20:02.763Z,1.93
2019-05-14T11:21:25.929Z,1.63
2019-05-14T11:22:01.819Z,2.07
2019-05-14T11:23:01.889Z,1.64
2019-05-14T11:24:01.788Z,1.82
2019-05-14T11:25:01.984Z,2.07
2019-05-14T11:26:01.990Z,1.78
2019-05-14T11:27:01.663Z,1.52
2019-05-14T11:28:02.708Z,2.1
2019-05-14T11:29:02.434Z,1.95
2019-05-14T11:30:01.648Z,2.03
2019-05-14T11:31:02.520Z,2.05
2019-05-14T11:32:02.455Z,2.01
2019-05-14T11:33:02.471Z,1.66
2019-05-14T11:34:02.659Z,1.57
2019-05-14T11:35:02.315Z,1.78
2019-05-14T11:36:02.424Z,1.41
2019-05-14T11:37:02.349Z,1.99
2019-05-14T11:38:02.402Z,2.04
2019-05-14T11:38:37.105Z,2.18
2019-05-14T11:39:04.290Z,1.59
2019-05-14T11:40:03.416Z,1.62
2019-05-14T11:41:03.070Z,1.53
2019-05-14T11:42:03.278Z,1.76
2019-05-14T11:43:02.871Z,1.73
2019-05-14T11:44:03.390Z,2.06
2019-05-14T11:45:03.340Z,1.72
2019-05-14T11:46:02.766Z,1.79
2019-05-14T11:47:03.055Z,2.11
2019-05-14T11:48:02.900Z,1.67
2019-05-14T11:49:02.894Z,2.38
2019-05-14T11:50:03.219Z,1.84
2019-05-14T11:51:03.055Z,1.59
2019-05-14T11:52:11.470Z,1.64
2019-05-14T11:53:02.889Z,1.93
2019-05-14T11:54:02.699Z,1.46
2019-05-14T11:55:03.157Z,1.42
2019-05-14T11:56:03.717Z,1.61
2019-05-14T11:57:03.028Z,1.26
2019-05-14T11:58:02.755Z,1.91
2019-05-14T11:59:03.572Z,1.67
2019-05-14T12:00:02.854Z,1.36
2019-05-14T12:01:02.677Z,1.38
2019-05-14T12:02:03.503Z,1.22
2019-05-14T12:03:03.319Z,1.69
2019-05-14T12:04:02.615Z,1.56
2019-05-14T12:05:02.913Z,1.56
2019-05-14T12:06:02.837Z,1.44
2019-05-14T12:07:03.673Z,1.39
2019-05-14T12:08:03.031Z,1.39
2019-05-14T12:09:02.976Z,1.35
2019-05-14T12:10:03.427Z,1.12
2019-05-14T12:11:02.732Z,1.12
2019-05-14T12:12:03.654Z,0.85
2019-05-14T12:13:02.664Z,1.09
2019-05-14T12:14:03.430Z,1.56
2019-05-14T12:15:02.716Z,1.01
2019-05-14T12:16:03.645Z,1.07
2019-05-14T12:17:03.619Z,1.1
2019-05-14T12:18:03.524Z,1.17
2019-05-14T12:19:03.359Z,1.41
2019-05-14T12:20:03.380Z,1.01
2019-05-14T12:21:02.973Z,1.3
2019-05-14T12:22:11.421Z,1.34
2019-05-14T12:23:03.014Z,1.58
2019-05-14T12:24:06.582Z,1.35
2019-05-14T12:25:03.116Z,1.49
2019-05-14T12:26:03.138Z,1.51
2019-05-14T12:27:02.961Z,1.54
2019-05-14T12:28:03.083Z,1.3
2019-05-14T12:29:03.059Z,1.36
2019-05-14T12:30:03.215Z,1.48
2019-05-14T12:31:03.020Z,1.5
2019-05-14T12:32:03.159Z,1.32
2019-05-14T12:33:02.792Z,1.41
2019-05-14T12:34:03.642Z,1.23
2019-05-14T12:35:02.903Z,0.99
2019-05-14T12:36:02.544Z,1.1
2019-05-14T12:37:02.676Z,1.25
2019-05-14T12:38:03.603Z,1.16
2019-05-14T12:39:02.651Z,1.28
2019-05-14T12:40:02.523Z,1.16
2019-05-14T12:41:03.385Z,1.35
2019-05-14T12:42:03.418Z,1.46
2019-05-14T12:43:03.399Z,1.14
2019-05-14T12:44:03.375Z,1.34
2019-05-14T12:45:03.258Z,1.39
2019-05-14T12:46:03.245Z,1.37
2019-05-14T12:47:03.260Z,1.31
2019-05-14T12:48:03.424Z,1.38
2019-05-14T12:49:03.273Z,1.02
2019-05-14T12:50:03.442Z,1.08
2019-05-14T12:51:02.953Z,1.42
2019-05-14T12:52:25.422Z,1.34
2019-05-14T12:53:03.326Z,1.34
2019-05-14T12:54:03.197Z,1.51
2019-05-14T12:55:03.073Z,1.21
2019-05-14T12:56:02.949Z,1.21
2019-05-14T12:57:02.842Z,1.49
2019-05-14T12:58:03.565Z,1.15
2019-05-14T12:59:02.754Z,1.15
2019-05-14T13:00:03.151Z,1.36
2019-05-14T13:01:03.028Z,1.42
2019-05-14T13:02:03.664Z,1.28
2019-05-14T13:03:02.624Z,1.71
2019-05-14T13:04:03.028Z,1.39
2019-05-14T13:05:03.664Z,1.08
2019-05-14T13:06:02.683Z,1.15
2019-05-14T13:07:03.581Z,1.04
2019-05-14T13:08:03.571Z,1.41
2019-05-14T13:09:03.518Z,0.8
2019-05-14T13:10:03.546Z,1.07
2019-05-14T13:11:03.518Z,1.76
2019-05-14T13:12:03.585Z,1.79
2019-05-14T13:13:03.645Z,1.41
2019-05-14T13:14:03.229Z,1.11
2019-05-14T13:15:03.583Z,1.16
2019-05-14T13:16:04.634Z,1.28
2019-05-14T13:17:03.569Z,1.09
2019-05-14T13:18:03.416Z,1.22
2019-05-14T13:19:03.353Z,1.38
2019-05-14T13:20:03.071Z,1.21
2019-05-14T13:21:03.308Z,1.12